Time;durP1;ratioP1;P1;durP2;ratioP2;P2;SDS_P1;SDS_P2;PMS_P1;PMS_P2;Temp;Humidity;BMP_temperature;BMP_pressure;BME280_temperature;BME280_humidity;BME280_pressure;Samples;Min_cycle;Max_cycle;Signal;HPM_P1;HPM_P2
2022/12/14 00:00:10;;;;;;;24.17;10.63;;;;;;;;;;5042306;28;20286;-68
2022/12/14 00:02:35;;;;;;;26.05;11.57;;;;;;;;;;5042153;28;20025;-68
2022/12/14 00:05:00;;;;;;;22.67;10.95;;;;;;;;;;5038407;28;20116;-68
2022/12/14 00:07:27;;;;;;;25.73;11.07;;;;;;;;;;5046534;28;20106;-68
2022/12/14 00:09:52;;;;;;;25.55;11.32;;;;;;;;;;5041521;28;20301;-68
2022/12/14 00:12:17;;;;;;;25.10;10.93;;;;;;;;;;5044352;28;20064;-68
2022/12/14 00:14:43;;;;;;;25.33;10.33;;;;;;;;;;5042802;28;20032;-68
2022/12/14 00:17:08;;;;;;;23.07;10.77;;;;;;;;;;5042083;28;20029;-68
2022/12/14 00:19:33;;;;;;;22.80;10.95;;;;;;;;;;5038479;28;20896;-68
2022/12/14 00:21:59;;;;;;;24.02;10.15;;;;;;;;;;5042906;28;20025;-69
2022/12/14 00:24:24;;;;;;;27.23;11.83;;;;;;;;;;5044171;28;20062;-68
2022/12/14 00:26:49;;;;;;;23.58;10.50;;;;;;;;;;5038033;28;20360;-67
2022/12/14 00:29:14;;;;;;;26.80;12.37;;;;;;;;;;5039941;28;20146;-68
2022/12/14 00:31:40;;;;;;;28.67;11.18;;;;;;;;;;5038974;28;20052;-69
2022/12/14 00:34:05;;;;;;;26.13;11.43;;;;;;;;;;5042744;28;20079;-69
2022/12/14 00:36:30;;;;;;;25.37;10.70;;;;;;;;;;5040720;28;20374;-67
2022/12/14 00:38:56;;;;;;;25.23;11.20;;;;;;;;;;5045613;28;20327;-69
2022/12/14 00:41:21;;;;;;;31.58;12.90;;;;;;;;;;5047601;28;20036;-68
2022/12/14 00:43:46;;;;;;;28.75;12.15;;;;;;;;;;5042699;28;20016;-68
2022/12/14 00:46:11;;;;;;;27.67;12.20;;;;;;;;;;5040373;28;20656;-69
2022/12/14 00:48:37;;;;;;;26.77;12.37;;;;;;;;;;5046030;28;20332;-69
2022/12/14 00:51:02;;;;;;;27.70;11.87;;;;;;;;;;5042418;28;20311;-68
2022/12/14 00:53:28;;;;;;;28.55;12.77;;;;;;;;;;5045910;28;20278;-68
2022/12/14 00:55:53;;;;;;;27.53;11.73;;;;;;;;;;5046128;28;20032;-68
2022/12/14 00:58:19;;;;;;;28.50;12.57;;;;;;;;;;5057194;28;20474;-69
2022/12/14 01:00:46;;;;;;;26.42;11.82;;;;;;;;;;5062675;28;20032;-69
2022/12/14 01:03:11;;;;;;;28.42;12.15;;;;;;;;;;5068168;28;20035;-68
2022/12/14 01:05:38;;;;;;;33.13;13.05;;;;;;;;;;5063628;28;20587;-67
2022/12/14 01:08:03;;;;;;;27.88;12.30;;;;;;;;;;5067923;28;20080;-68
2022/12/14 01:10:29;;;;;;;29.95;12.50;;;;;;;;;;5070254;28;20025;-69
2022/12/14 01:12:54;;;;;;;28.98;11.75;;;;;;;;;;5064565;28;20031;-69
2022/12/14 01:15:19;;;;;;;28.37;12.47;;;;;;;;;;5067431;28;20090;-68
2022/12/14 01:17:44;;;;;;;31.95;12.05;;;;;;;;;;5068246;28;20630;-68
2022/12/14 01:20:10;;;;;;;31.57;13.43;;;;;;;;;;5069951;28;20017;-68
2022/12/14 01:22:35;;;;;;;28.45;12.85;;;;;;;;;;5067738;28;20029;-68
2022/12/14 01:25:01;;;;;;;32.83;13.23;;;;;;;;;;5069232;28;20143;-68
2022/12/14 01:27:26;;;;;;;32.00;12.90;;;;;;;;;;5045561;28;20054;-68
2022/12/14 01:29:52;;;;;;;27.38;12.43;;;;;;;;;;5066558;28;20261;-69
2022/12/14 01:32:17;;;;;;;28.58;12.73;;;;;;;;;;5066538;28;20056;-68
2022/12/14 01:34:42;;;;;;;31.13;12.90;;;;;;;;;;5069936;28;20123;-68
2022/12/14 01:37:07;;;;;;;29.60;12.90;;;;;;;;;;5065477;28;20364;-68
2022/12/14 01:39:33;;;;;;;32.60;14.10;;;;;;;;;;5047503;28;20293;-68
2022/12/14 01:41:58;;;;;;;29.80;13.70;;;;;;;;;;5059417;28;20282;-68
2022/12/14 01:44:23;;;;;;;25.33;11.33;;;;;;;;;;5063199;28;20317;-67
2022/12/14 01:46:54;;;;;;;26.73;11.77;;;;;;;;;;5066041;28;20664;-68
2022/12/14 01:49:22;;;;;;;27.00;12.30;;;;;;;;;;5065663;28;20020;-69
2022/12/14 01:52:00;;;;;;;24.65;11.98;;;;;;;;;;5062731;28;20025;-67
2022/12/14 01:54:26;;;;;;;26.42;12.32;;;;;;;;;;5064455;28;20021;-69
2022/12/14 01:56:52;;;;;;;27.10;12.48;;;;;;;;;;5065504;28;20024;-68
2022/12/14 01:59:22;;;;;;;28.15;11.98;;;;;;;;;;5062208;28;20055;-69
2022/12/14 02:01:47;;;;;;;25.58;11.95;;;;;;;;;;5061649;28;20062;-67
2022/12/14 02:04:13;;;;;;;25.52;11.05;;;;;;;;;;5058847;28;20120;-69
2022/12/14 02:06:39;;;;;;;26.00;11.65;;;;;;;;;;5070168;28;20032;-69
2022/12/14 02:09:07;;;;;;;28.23;11.85;;;;;;;;;;5066560;28;20063;-68
2022/12/14 02:11:53;;;;;;;24.52;11.73;;;;;;;;;;5065129;28;20037;-69
2022/12/14 02:14:18;;;;;;;25.77;11.32;;;;;;;;;;5062412;28;20491;-68
2022/12/14 02:16:44;;;;;;;25.90;11.73;;;;;;;;;;5067401;28;20021;-67
2022/12/14 02:19:09;;;;;;;25.00;11.73;;;;;;;;;;5055499;28;20317;-68
2022/12/14 02:21:52;;;;;;;25.07;11.50;;;;;;;;;;5068927;28;20017;-68
2022/12/14 02:24:36;;;;;;;27.40;12.02;;;;;;;;;;5059501;28;20281;-68
2022/12/14 02:27:20;;;;;;;22.90;10.65;;;;;;;;;;5065648;28;20558;-69
2022/12/14 02:30:05;;;;;;;27.90;12.10;;;;;;;;;;5050270;28;20600;-69
2022/12/14 02:32:45;;;;;;;27.38;11.70;;;;;;;;;;5064504;28;20070;-68
2022/12/14 02:35:11;;;;;;;25.90;11.52;;;;;;;;;;5060233;28;20116;-68
2022/12/14 02:37:42;;;;;;;27.43;12.37;;;;;;;;;;5067451;28;20441;-68
2022/12/14 02:40:19;;;;;;;27.08;11.63;;;;;;;;;;5061827;28;20024;-68
2022/12/14 02:42:55;;;;;;;25.80;11.25;;;;;;;;;;5064441;28;20029;-69
2022/12/14 02:45:32;;;;;;;24.05;11.60;;;;;;;;;;5065951;28;20493;-69
2022/12/14 02:48:05;;;;;;;27.02;11.45;;;;;;;;;;5067917;28;20127;-69
2022/12/14 02:50:50;;;;;;;26.67;10.82;;;;;;;;;;5060603;28;20024;-69
2022/12/14 02:53:18;;;;;;;31.17;11.52;;;;;;;;;;5068043;28;20115;-69
2022/12/14 02:55:46;;;;;;;30.10;11.68;;;;;;;;;;5062589;28;20151;-70
2022/12/14 02:58:11;;;;;;;24.20;10.90;;;;;;;;;;5062964;28;20090;-68
2022/12/14 03:00:37;;;;;;;26.83;11.63;;;;;;;;;;5065179;28;20029;-69
2022/12/14 03:03:04;;;;;;;23.77;10.82;;;;;;;;;;5063158;28;20041;-69
2022/12/14 03:05:29;;;;;;;25.25;10.70;;;;;;;;;;5065534;28;20024;-69
2022/12/14 03:07:56;;;;;;;24.75;10.88;;;;;;;;;;5066291;28;20082;-68
2022/12/14 03:10:38;;;;;;;27.40;10.98;;;;;;;;;;5047438;28;20024;-69
2022/12/14 03:13:12;;;;;;;24.27;10.93;;;;;;;;;;5061404;28;20024;-69
2022/12/14 03:15:39;;;;;;;24.13;10.30;;;;;;;;;;5059618;28;20025;-69
2022/12/14 03:18:06;;;;;;;22.42;10.23;;;;;;;;;;5063495;28;20029;-69
2022/12/14 03:20:33;;;;;;;27.73;11.32;;;;;;;;;;5048062;28;20036;-69
2022/12/14 03:23:03;;;;;;;25.52;10.90;;;;;;;;;;5059667;28;20032;-68
2022/12/14 03:25:33;;;;;;;25.13;11.27;;;;;;;;;;5065384;28;20028;-68
2022/12/14 03:28:03;;;;;;;28.80;11.68;;;;;;;;;;5044585;28;20505;-69
2022/12/14 03:30:29;;;;;;;26.90;11.63;;;;;;;;;;5060628;28;20483;-69
2022/12/14 03:32:56;;;;;;;25.02;10.82;;;;;;;;;;5043689;28;20043;-69
2022/12/14 03:35:32;;;;;;;26.92;11.23;;;;;;;;;;5065608;28;20025;-70
2022/12/14 03:38:01;;;;;;;26.02;11.23;;;;;;;;;;5060109;28;20036;-69
2022/12/14 03:40:33;;;;;;;24.02;10.88;;;;;;;;;;5061288;28;20036;-69
2022/12/14 03:43:03;;;;;;;25.98;11.80;;;;;;;;;;5063484;28;20025;-68
2022/12/14 03:45:57;;;;;;;32.08;12.18;;;;;;;;;;5064112;28;20032;-68
2022/12/14 03:48:25;;;;;;;28.00;11.80;;;;;;;;;;4964919;28;20516;-69
2022/12/14 03:51:09;;;;;;;27.10;11.93;;;;;;;;;;4961305;28;20106;-68
2022/12/14 03:53:34;;;;;;;29.88;12.88;;;;;;;;;;4959706;28;20022;-69
2022/12/14 03:56:18;;;;;;;31.87;12.63;;;;;;;;;;4958366;28;20114;-69
2022/12/14 03:58:59;;;;;;;26.58;10.60;;;;;;;;;;4959776;28;20879;-68
2022/12/14 04:01:24;;;;;;;28.45;11.98;;;;;;;;;;4958333;28;20031;-69
2022/12/14 04:04:05;;;;;;;24.48;10.98;;;;;;;;;;4963386;28;20498;-69
2022/12/14 04:06:49;;;;;;;25.98;11.27;;;;;;;;;;4969198;28;20051;-68
2022/12/14 04:09:26;;;;;;;28.33;12.10;;;;;;;;;;4967982;28;20034;-69
2022/12/14 04:20:28;;;;;;;25.25;10.85;;;;;;;;;;4961159;28;20034;-69
2022/12/14 04:23:01;;;;;;;25.15;11.10;;;;;;;;;;4963261;28;20045;-69
2022/12/14 04:31:01;;;;;;;27.30;11.48;;;;;;;;;;5044114;28;20035;-69
2022/12/14 04:33:45;;;;;;;25.23;11.35;;;;;;;;;;5040670;28;20018;-69
2022/12/14 04:36:12;;;;;;;25.60;11.75;;;;;;;;;;5045351;28;20425;-68
2022/12/14 04:38:38;;;;;;;26.20;11.52;;;;;;;;;;5047617;28;20022;-68
2022/12/14 04:41:06;;;;;;;26.63;11.60;;;;;;;;;;5045379;28;20467;-68
2022/12/14 04:43:35;;;;;;;27.23;11.18;;;;;;;;;;5049393;28;20098;-68
2022/12/14 04:46:05;;;;;;;25.98;10.60;;;;;;;;;;5042770;28;20021;-68
2022/12/14 04:48:34;;;;;;;25.80;11.57;;;;;;;;;;5046602;28;20031;-69
2022/12/14 04:51:06;;;;;;;25.52;11.98;;;;;;;;;;5043840;28;20100;-69
2022/12/14 04:53:33;;;;;;;21.70;10.70;;;;;;;;;;5040616;28;20040;-68
2022/12/14 04:55:58;;;;;;;23.63;10.55;;;;;;;;;;5040410;28;20017;-68
2022/12/14 04:58:25;;;;;;;27.77;11.43;;;;;;;;;;5042135;28;20175;-68
2022/12/14 05:01:15;;;;;;;26.70;12.65;;;;;;;;;;5045019;28;20043;-67
2022/12/14 05:03:49;;;;;;;26.98;11.95;;;;;;;;;;5043112;28;20048;-67
2022/12/14 05:06:17;;;;;;;25.98;12.25;;;;;;;;;;5039067;28;20025;-71
2022/12/14 05:09:04;;;;;;;24.27;11.43;;;;;;;;;;5043882;28;20028;-71
2022/12/14 05:11:32;;;;;;;25.80;11.93;;;;;;;;;;5046402;28;20029;-70
2022/12/14 05:13:59;;;;;;;25.02;10.80;;;;;;;;;;5042361;28;20032;-71
2022/12/14 05:16:24;;;;;;;24.92;10.98;;;;;;;;;;5043124;28;20021;-70
2022/12/14 05:18:50;;;;;;;25.45;11.52;;;;;;;;;;5049218;28;20083;-69
2022/12/14 05:24:00;;;;;;;24.67;12.07;;;;;;;;;;5042076;28;20095;-70
2022/12/14 05:26:25;;;;;;;25.77;12.07;;;;;;;;;;5041243;28;20029;-71
2022/12/14 05:28:51;;;;;;;24.00;10.20;;;;;;;;;;5049699;28;20445;-70
2022/12/14 05:31:16;;;;;;;21.85;10.98;;;;;;;;;;5047775;28;20025;-71
2022/12/14 05:33:41;;;;;;;23.07;11.17;;;;;;;;;;5048322;28;20025;-71
2022/12/14 05:36:07;;;;;;;25.43;12.00;;;;;;;;;;5045349;28;20360;-71
2022/12/14 05:38:32;;;;;;;23.60;10.68;;;;;;;;;;5043613;28;20274;-71
2022/12/14 05:40:57;;;;;;;24.90;11.93;;;;;;;;;;5046641;28;20463;-71
2022/12/14 05:43:22;;;;;;;23.70;10.70;;;;;;;;;;5049629;28;20028;-71
2022/12/14 05:45:47;;;;;;;25.87;11.60;;;;;;;;;;5045482;28;20505;-71
2022/12/14 05:48:13;;;;;;;21.97;9.77;;;;;;;;;;5045059;28;20522;-71
2022/12/14 05:50:38;;;;;;;28.13;11.67;;;;;;;;;;5048792;28;20021;-70
2022/12/14 05:53:03;;;;;;;24.17;10.77;;;;;;;;;;5048416;28;20360;-72
2022/12/14 05:55:28;;;;;;;27.27;11.83;;;;;;;;;;5043829;28;20467;-71
2022/12/14 05:57:54;;;;;;;29.30;11.70;;;;;;;;;;5047202;28;20295;-71
2022/12/14 06:00:20;;;;;;;25.88;11.63;;;;;;;;;;5046838;28;20346;-70
2022/12/14 06:02:45;;;;;;;23.95;11.45;;;;;;;;;;5045876;28;20063;-71
2022/12/14 06:05:11;;;;;;;26.10;11.27;;;;;;;;;;5038031;28;20099;-71
2022/12/14 06:07:36;;;;;;;24.80;11.70;;;;;;;;;;5040861;28;20079;-71
2022/12/14 06:10:01;;;;;;;25.27;11.90;;;;;;;;;;5039032;28;20282;-71
2022/12/14 06:12:26;;;;;;;24.20;11.43;;;;;;;;;;5037392;28;20060;-71
2022/12/14 06:14:52;;;;;;;26.83;12.27;;;;;;;;;;5038100;28;20032;-71
2022/12/14 06:17:17;;;;;;;25.90;12.03;;;;;;;;;;5046846;28;20037;-71
2022/12/14 06:19:42;;;;;;;26.17;12.25;;;;;;;;;;5047433;28;20351;-70
2022/12/14 06:22:07;;;;;;;28.33;11.45;;;;;;;;;;5047105;28;20024;-71
2022/12/14 06:24:33;;;;;;;25.83;11.80;;;;;;;;;;5039620;28;20052;-71
2022/12/14 06:26:58;;;;;;;31.67;10.17;;;;;;;;;;5043610;28;20768;-71
2022/12/14 06:29:23;;;;;;;25.10;11.97;;;;;;;;;;5045636;28;20297;-71
2022/12/14 06:31:48;;;;;;;26.53;11.10;;;;;;;;;;5043266;28;20277;-70
2022/12/14 06:34:14;;;;;;;24.70;11.77;;;;;;;;;;5044564;28;20036;-70
2022/12/14 06:36:40;;;;;;;26.17;11.68;;;;;;;;;;5044954;28;20021;-71
2022/12/14 06:39:13;;;;;;;25.92;12.02;;;;;;;;;;5045943;28;20071;-71
2022/12/14 06:41:39;;;;;;;24.92;11.25;;;;;;;;;;5046403;28;20017;-71
2022/12/14 06:44:07;;;;;;;25.85;11.68;;;;;;;;;;5047611;28;20025;-71
2022/12/14 06:46:32;;;;;;;26.08;11.48;;;;;;;;;;5038075;28;20368;-71
2022/12/14 06:48:58;;;;;;;26.05;11.70;;;;;;;;;;5041267;28;20043;-70
2022/12/14 06:51:24;;;;;;;26.00;11.37;;;;;;;;;;5047684;28;20056;-71
2022/12/14 06:53:50;;;;;;;24.08;11.57;;;;;;;;;;5040282;28;20296;-70
2022/12/14 06:56:16;;;;;;;24.55;11.13;;;;;;;;;;5041464;28;20063;-72
2022/12/14 06:58:41;;;;;;;29.40;11.52;;;;;;;;;;5059346;28;20095;-71
2022/12/14 07:01:08;;;;;;;28.42;12.23;;;;;;;;;;5058933;28;20036;-71
2022/12/14 07:03:33;;;;;;;27.23;11.70;;;;;;;;;;5047112;28;20602;-72
2022/12/14 07:05:59;;;;;;;26.90;11.85;;;;;;;;;;5063274;28;20050;-72
2022/12/14 07:08:25;;;;;;;28.42;12.57;;;;;;;;;;5059576;28;20032;-71
2022/12/14 07:10:50;;;;;;;22.33;10.80;;;;;;;;;;5058944;28;20017;-71
2022/12/14 07:13:16;;;;;;;25.63;11.05;;;;;;;;;;5064614;28;20063;-72
2022/12/14 07:15:41;;;;;;;21.53;10.90;;;;;;;;;;5057326;28;20044;-71
2022/12/14 07:18:06;;;;;;;25.23;10.67;;;;;;;;;;5062533;28;20289;-71
2022/12/14 07:20:31;;;;;;;23.33;10.77;;;;;;;;;;5062693;28;20028;-71
2022/12/14 07:22:57;;;;;;;20.03;10.17;;;;;;;;;;5050418;28;20277;-71
2022/12/14 07:25:22;;;;;;;26.27;11.53;;;;;;;;;;5063467;28;20319;-71
2022/12/14 07:27:47;;;;;;;22.37;10.60;;;;;;;;;;5047874;28;20040;-72
2022/12/14 07:30:13;;;;;;;23.17;10.80;;;;;;;;;;5047374;28;20181;-71
2022/12/14 07:32:38;;;;;;;23.92;11.30;;;;;;;;;;5063283;28;20281;-71
2022/12/14 07:35:04;;;;;;;24.08;11.02;;;;;;;;;;5046337;28;20016;-73
2022/12/14 07:37:29;;;;;;;20.67;9.98;;;;;;;;;;5065489;28;20498;-72
2022/12/14 07:39:54;;;;;;;22.70;10.43;;;;;;;;;;5063724;28;20373;-71
2022/12/14 07:42:19;;;;;;;20.45;9.75;;;;;;;;;;5062847;28;20126;-71
2022/12/14 07:44:45;;;;;;;23.17;9.97;;;;;;;;;;5059876;28;20507;-72
2022/12/14 07:47:10;;;;;;;30.70;10.50;;;;;;;;;;5062287;28;20331;-72
2022/12/14 07:49:35;;;;;;;20.53;9.57;;;;;;;;;;5058672;28;20025;-72
2022/12/14 07:52:00;;;;;;;21.50;10.30;;;;;;;;;;5062772;28;20367;-71
2022/12/14 07:54:26;;;;;;;23.57;11.20;;;;;;;;;;5065923;28;20103;-70
2022/12/14 07:56:51;;;;;;;22.02;10.30;;;;;;;;;;5042219;28;20111;-70
2022/12/14 07:59:16;;;;;;;23.63;10.83;;;;;;;;;;5068534;28;20055;-71
2022/12/14 08:01:42;;;;;;;26.17;10.90;;;;;;;;;;5059570;28;20309;-70
2022/12/14 08:04:09;;;;;;;23.05;10.27;;;;;;;;;;5039970;28;20020;-71
2022/12/14 08:06:35;;;;;;;25.55;10.40;;;;;;;;;;5066755;28;20537;-70
2022/12/14 08:09:00;;;;;;;21.23;10.68;;;;;;;;;;5048118;28;20123;-71
2022/12/14 08:11:26;;;;;;;21.83;9.93;;;;;;;;;;5056659;28;20016;-71
2022/12/14 08:14:02;;;;;;;25.27;11.25;;;;;;;;;;5059147;28;20750;-71
2022/12/14 08:16:27;;;;;;;27.70;12.35;;;;;;;;;;5062682;28;20032;-71
2022/12/14 08:18:53;;;;;;;24.38;10.40;;;;;;;;;;5060128;28;20536;-71
2022/12/14 08:21:20;;;;;;;25.98;9.07;;;;;;;;;;5042759;28;20478;-71
2022/12/14 08:23:46;;;;;;;23.17;11.43;;;;;;;;;;5059929;28;20028;-70
2022/12/14 08:26:11;;;;;;;22.98;10.23;;;;;;;;;;5039693;28;20025;-70
2022/12/14 08:28:37;;;;;;;22.57;10.70;;;;;;;;;;5065811;28;20028;-70
2022/12/14 08:31:12;;;;;;;24.85;11.23;;;;;;;;;;5044195;28;20509;-69
2022/12/14 08:33:39;;;;;;;21.50;10.57;;;;;;;;;;5061723;28;20095;-70
2022/12/14 08:36:15;;;;;;;25.13;11.95;;;;;;;;;;5063634;28;20021;-70
2022/12/14 08:38:40;;;;;;;22.13;10.82;;;;;;;;;;5063226;28;20082;-70
2022/12/14 08:41:10;;;;;;;25.92;10.93;;;;;;;;;;5059458;28;20036;-71
2022/12/14 08:43:35;;;;;;;26.30;10.63;;;;;;;;;;5065911;28;20036;-70
2022/12/14 08:46:01;;;;;;;23.55;11.27;;;;;;;;;;5062906;28;20399;-70
2022/12/14 08:48:26;;;;;;;25.77;11.35;;;;;;;;;;5056539;28;20426;-70
2022/12/14 08:50:52;;;;;;;29.05;12.57;;;;;;;;;;5058717;28;20364;-71
2022/12/14 08:53:17;;;;;;;24.58;11.27;;;;;;;;;;5058259;28;20029;-71
2022/12/14 08:55:43;;;;;;;24.23;10.80;;;;;;;;;;5063341;28;20028;-71
2022/12/14 08:58:09;;;;;;;32.88;12.13;;;;;;;;;;5069562;28;20044;-69
2022/12/14 09:00:34;;;;;;;25.75;11.38;;;;;;;;;;5053212;28;20028;-71
2022/12/14 09:02:59;;;;;;;25.53;11.23;;;;;;;;;;5049330;28;20077;-69
2022/12/14 09:05:24;;;;;;;26.93;11.60;;;;;;;;;;5064645;28;20390;-69
2022/12/14 09:07:50;;;;;;;26.20;11.53;;;;;;;;;;5068852;28;20025;-69
2022/12/14 09:10:15;;;;;;;26.27;12.27;;;;;;;;;;5067008;28;20338;-68
2022/12/14 09:12:40;;;;;;;25.85;12.75;;;;;;;;;;5051016;28;20032;-70
2022/12/14 09:15:06;;;;;;;24.77;11.27;;;;;;;;;;5070520;28;20020;-71
2022/12/14 09:17:32;;;;;;;23.95;11.77;;;;;;;;;;5069734;28;20020;-70
2022/12/14 09:19:57;;;;;;;27.77;11.70;;;;;;;;;;5066995;28;20021;-70
2022/12/14 09:22:23;;;;;;;25.40;11.95;;;;;;;;;;5060840;28;20051;-71
2022/12/14 09:24:49;;;;;;;27.37;12.23;;;;;;;;;;5067391;28;20024;-70
2022/12/14 09:27:15;;;;;;;29.25;11.85;;;;;;;;;;5061143;28;20289;-70
2022/12/14 09:29:40;;;;;;;22.67;11.43;;;;;;;;;;5065572;28;20371;-70
2022/12/14 09:32:06;;;;;;;30.67;12.52;;;;;;;;;;5066614;28;20047;-69
2022/12/14 09:34:31;;;;;;;23.43;11.67;;;;;;;;;;5065241;28;20047;-69
2022/12/14 09:36:56;;;;;;;28.53;12.77;;;;;;;;;;5045250;28;20270;-70
2022/12/14 09:39:21;;;;;;;26.33;11.20;;;;;;;;;;5061309;28;20110;-69
2022/12/14 09:41:50;;;;;;;24.60;10.85;;;;;;;;;;5064076;28;20105;-70
2022/12/14 09:44:18;;;;;;;29.98;11.45;;;;;;;;;;5050504;28;20437;-70
2022/12/14 09:46:59;;;;;;;27.55;11.55;;;;;;;;;;5046830;28;20045;-69
2022/12/14 09:49:57;;;;;;;23.15;11.00;;;;;;;;;;5065918;28;20527;-70
2022/12/14 09:52:33;;;;;;;27.50;12.23;;;;;;;;;;5013115;28;20032;-69
2022/12/14 09:55:00;;;;;;;28.77;12.10;;;;;;;;;;5057515;28;20020;-70
2022/12/14 09:57:25;;;;;;;27.83;13.15;;;;;;;;;;5060019;28;20052;-70
2022/12/14 09:59:53;;;;;;;32.63;13.77;;;;;;;;;;5050718;28;20089;-72
2022/12/14 10:02:36;;;;;;;27.58;12.13;;;;;;;;;;5058503;28;20295;-72
2022/12/14 10:05:13;;;;;;;26.20;11.57;;;;;;;;;;5065367;28;20029;-71
2022/12/14 10:07:59;;;;;;;27.00;12.57;;;;;;;;;;5066661;28;20437;-72
2022/12/14 10:10:35;;;;;;;29.75;13.00;;;;;;;;;;5064791;28;20619;-71
2022/12/14 10:13:09;;;;;;;27.13;12.02;;;;;;;;;;5045039;28;20039;-71
2022/12/14 10:15:53;;;;;;;23.45;11.82;;;;;;;;;;5064664;28;20412;-73
2022/12/14 10:18:39;;;;;;;26.58;10.82;;;;;;;;;;5060335;28;20024;-71
2022/12/14 10:21:08;;;;;;;23.65;11.73;;;;;;;;;;5058499;28;20486;-72
2022/12/14 10:23:34;;;;;;;26.38;12.50;;;;;;;;;;5060750;28;20122;-71
2022/12/14 10:26:02;;;;;;;22.83;10.77;;;;;;;;;;5042685;28;20467;-70
2022/12/14 10:28:54;;;;;;;29.02;12.27;;;;;;;;;;5042865;28;20095;-70
2022/12/14 10:31:30;;;;;;;29.50;12.30;;;;;;;;;;5063016;28;20033;-72
2022/12/14 10:33:59;;;;;;;22.25;11.32;;;;;;;;;;5062704;28;20023;-71
2022/12/14 10:36:33;;;;;;;27.02;11.10;;;;;;;;;;5062715;28;22310;-73
2022/12/14 10:39:00;;;;;;;26.35;11.73;;;;;;;;;;5057614;28;20020;-70
2022/12/14 10:41:36;;;;;;;23.70;11.80;;;;;;;;;;5064218;28;20080;-71
2022/12/14 10:44:01;;;;;;;24.77;11.38;;;;;;;;;;5062421;28;20030;-71
2022/12/14 10:46:31;;;;;;;28.00;11.83;;;;;;;;;;5048564;28;20025;-72
2022/12/14 10:49:05;;;;;;;26.98;11.95;;;;;;;;;;5063261;28;20430;-69
2022/12/14 10:51:36;;;;;;;25.38;12.43;;;;;;;;;;5058754;28;20028;-72
2022/12/14 10:54:04;;;;;;;29.67;12.80;;;;;;;;;;5043091;28;20043;-70
2022/12/14 10:56:34;;;;;;;29.70;13.27;;;;;;;;;;5066267;28;20034;-72
2022/12/14 10:59:12;;;;;;;28.80;12.52;;;;;;;;;;5061613;28;20041;-70
2022/12/14 11:01:38;;;;;;;30.05;12.80;;;;;;;;;;5059132;28;20020;-70
2022/12/14 11:04:04;;;;;;;29.05;11.98;;;;;;;;;;5060286;28;20035;-70
2022/12/14 11:06:29;;;;;;;35.92;12.45;;;;;;;;;;5047971;28;20036;-70
2022/12/14 11:08:56;;;;;;;26.67;12.50;;;;;;;;;;5062807;28;20024;-70
2022/12/14 11:11:23;;;;;;;26.08;12.70;;;;;;;;;;5063337;28;20281;-70
2022/12/14 11:13:53;;;;;;;25.67;12.88;;;;;;;;;;5064793;28;20056;-71
2022/12/14 11:16:47;;;;;;;29.48;13.85;;;;;;;;;;5044963;28;20126;-72
2022/12/14 11:19:17;;;;;;;29.48;13.82;;;;;;;;;;5023252;28;20044;-72
2022/12/14 11:21:43;;;;;;;31.75;13.48;;;;;;;;;;5065765;28;20032;-71
2022/12/14 11:24:20;;;;;;;43.72;15.60;;;;;;;;;;5041000;28;20418;-71
2022/12/14 11:26:45;;;;;;;31.20;13.57;;;;;;;;;;5057708;28;20483;-71
2022/12/14 11:29:46;;;;;;;29.48;13.13;;;;;;;;;;5038156;28;20039;-70
2022/12/14 11:32:37;;;;;;;28.55;12.27;;;;;;;;;;4971235;28;20440;-70
2022/12/14 11:35:03;;;;;;;28.10;12.35;;;;;;;;;;4961661;28;20046;-71
2022/12/14 11:37:29;;;;;;;25.85;11.90;;;;;;;;;;4965896;28;20493;-71
2022/12/14 11:39:58;;;;;;;26.70;12.13;;;;;;;;;;4970980;28;20043;-71
2022/12/14 11:42:24;;;;;;;27.13;11.60;;;;;;;;;;4966107;28;20495;-71
2022/12/14 11:44:50;;;;;;;26.48;12.15;;;;;;;;;;4971066;28;20039;-71
2022/12/14 11:47:19;;;;;;;31.38;12.23;;;;;;;;;;4970647;28;21168;-70
2022/12/14 11:49:53;;;;;;;22.55;11.10;;;;;;;;;;4969162;28;20035;-71
2022/12/14 11:52:21;;;;;;;22.70;11.50;;;;;;;;;;4949793;28;20032;-71
2022/12/14 11:54:47;;;;;;;22.95;10.90;;;;;;;;;;4963132;28;20516;-71
2022/12/14 11:57:12;;;;;;;24.33;10.50;;;;;;;;;;4965693;28;20137;-71
2022/12/14 11:59:39;;;;;;;21.50;10.73;;;;;;;;;;4965413;28;20066;-71
2022/12/14 12:02:14;;;;;;;26.00;10.52;;;;;;;;;;4964920;28;20633;-71
2022/12/14 12:04:44;;;;;;;25.95;10.95;;;;;;;;;;4967548;28;20031;-71
2022/12/14 12:07:28;;;;;;;21.20;9.73;;;;;;;;;;5051806;28;20025;-72
2022/12/14 12:09:54;;;;;;;19.85;9.98;;;;;;;;;;5058738;28;20111;-68
2022/12/14 12:12:21;;;;;;;26.88;11.10;;;;;;;;;;5042772;28;20455;-71
2022/12/14 12:14:50;;;;;;;27.95;10.55;;;;;;;;;;5068580;28;20029;-70
2022/12/14 12:17:28;;;;;;;27.35;12.45;;;;;;;;;;5062709;28;20108;-68
2022/12/14 12:19:53;;;;;;;28.70;12.25;;;;;;;;;;5066142;28;20376;-70
2022/12/14 12:22:19;;;;;;;33.08;12.93;;;;;;;;;;5043381;28;20127;-70
2022/12/14 12:24:52;;;;;;;33.40;13.25;;;;;;;;;;5045544;28;20071;-70
2022/12/14 12:27:19;;;;;;;29.63;13.82;;;;;;;;;;5063142;28;20064;-71
2022/12/14 12:29:51;;;;;;;37.67;13.45;;;;;;;;;;5065678;28;20032;-70
2022/12/14 12:32:23;;;;;;;27.38;12.18;;;;;;;;;;5068287;28;20475;-70
2022/12/14 12:34:48;;;;;;;28.27;12.98;;;;;;;;;;5060215;28;20391;-70
2022/12/14 12:37:18;;;;;;;28.83;12.35;;;;;;;;;;5060844;28;20017;-70
2022/12/14 12:39:50;;;;;;;28.30;12.82;;;;;;;;;;5067960;28;20116;-70
2022/12/14 12:42:36;;;;;;;32.60;14.18;;;;;;;;;;5069501;28;20026;-70
2022/12/14 12:45:11;;;;;;;30.85;13.98;;;;;;;;;;5047141;28;20574;-70
2022/12/14 12:47:46;;;;;;;34.95;13.80;;;;;;;;;;5052479;28;20024;-70
2022/12/14 12:50:16;;;;;;;29.77;14.00;;;;;;;;;;5065275;28;20048;-70
2022/12/14 12:52:52;;;;;;;33.28;14.40;;;;;;;;;;5062984;28;20450;-69
2022/12/14 12:55:19;;;;;;;31.25;14.10;;;;;;;;;;5065652;28;20107;-69
2022/12/14 12:57:46;;;;;;;26.52;14.10;;;;;;;;;;5061076;28;20084;-70
2022/12/14 13:00:18;;;;;;;30.45;13.25;;;;;;;;;;5066350;28;20048;-75
2022/12/14 13:03:11;;;;;;;24.85;12.82;;;;;;;;;;5054438;28;20041;-72
2022/12/14 13:05:40;;;;;;;26.60;12.25;;;;;;;;;;5064029;28;20482;-75
2022/12/14 13:08:31;;;;;;;29.70;14.15;;;;;;;;;;5051120;28;20056;-74
2022/12/14 13:11:00;;;;;;;27.30;12.02;;;;;;;;;;5029562;28;20044;-77
2022/12/14 13:13:28;;;;;;;28.45;11.88;;;;;;;;;;5051562;28;20024;-75
2022/12/14 13:16:14;;;;;;;29.20;12.65;;;;;;;;;;5049753;28;20040;-78
2022/12/14 13:18:41;;;;;;;25.15;12.30;;;;;;;;;;5058552;28;20042;-78
2022/12/14 13:21:16;;;;;;;24.88;12.13;;;;;;;;;;5063082;28;20028;-77
2022/12/14 13:23:42;;;;;;;25.95;11.23;;;;;;;;;;5050622;28;20039;-77
2022/12/14 13:26:25;;;;;;;23.45;11.45;;;;;;;;;;5065083;28;20167;-77
2022/12/14 13:29:11;;;;;;;25.63;12.30;;;;;;;;;;5049627;28;20506;-77
2022/12/14 13:31:42;;;;;;;26.45;13.07;;;;;;;;;;5060512;28;20077;-73
2022/12/14 13:34:07;;;;;;;28.02;12.50;;;;;;;;;;5061169;28;20024;-71
2022/12/14 13:36:35;;;;;;;24.93;13.23;;;;;;;;;;5063750;28;20028;-71
2022/12/14 13:39:09;;;;;;;26.13;12.70;;;;;;;;;;5047290;28;20285;-70
2022/12/14 13:41:55;;;;;;;29.00;12.57;;;;;;;;;;5064162;28;20387;-70
2022/12/14 13:44:23;;;;;;;29.95;13.23;;;;;;;;;;5043935;28;20398;-70
2022/12/14 13:46:58;;;;;;;30.02;12.88;;;;;;;;;;5044945;28;20431;-71
2022/12/14 13:49:24;;;;;;;23.17;11.70;;;;;;;;;;5067231;28;20614;-71
2022/12/14 13:51:49;;;;;;;32.47;13.35;;;;;;;;;;5047724;28;20043;-70
2022/12/14 13:54:20;;;;;;;30.00;12.65;;;;;;;;;;5048391;28;20416;-70
2022/12/14 13:56:45;;;;;;;23.63;11.63;;;;;;;;;;5062331;28;20117;-70
2022/12/14 13:59:23;;;;;;;28.55;13.00;;;;;;;;;;5046197;28;20227;-70
2022/12/14 14:01:48;;;;;;;26.75;11.45;;;;;;;;;;5066381;28;20856;-74
2022/12/14 14:04:17;;;;;;;25.27;11.37;;;;;;;;;;5059479;28;20112;-72
2022/12/14 14:06:43;;;;;;;24.45;11.75;;;;;;;;;;5066008;28;20277;-71
2022/12/14 14:09:27;;;;;;;27.80;12.00;;;;;;;;;;5047335;28;20063;-71
2022/12/14 14:11:56;;;;;;;24.92;12.60;;;;;;;;;;5045066;28;20086;-72
2022/12/14 14:14:24;;;;;;;26.23;11.97;;;;;;;;;;5046107;28;20068;-74
2022/12/14 14:16:53;;;;;;;25.63;11.95;;;;;;;;;;5062736;28;20751;-72
2022/12/14 14:19:22;;;;;;;26.85;11.93;;;;;;;;;;5058578;28;20490;-74
2022/12/14 14:22:20;;;;;;;26.05;11.60;;;;;;;;;;5056656;28;20055;-74
2022/12/14 14:24:54;;;;;;;25.08;13.02;;;;;;;;;;5016671;28;20036;-73
2022/12/14 14:27:22;;;;;;;24.65;12.80;;;;;;;;;;5033419;28;20025;-73
2022/12/14 14:29:48;;;;;;;25.40;12.68;;;;;;;;;;5049530;28;20489;-74
2022/12/14 14:32:36;;;;;;;30.15;13.85;;;;;;;;;;5060751;28;20123;-74
2022/12/14 14:35:06;;;;;;;29.50;13.02;;;;;;;;;;5038536;28;20098;-73
2022/12/14 14:37:32;;;;;;;25.15;12.93;;;;;;;;;;5061967;28;20624;-73
2022/12/14 14:40:00;;;;;;;28.67;14.18;;;;;;;;;;5059970;28;20032;-70
2022/12/14 14:42:28;;;;;;;31.30;15.50;;;;;;;;;;5060825;28;20023;-70
2022/12/14 14:45:04;;;;;;;27.48;13.25;;;;;;;;;;5044298;28;20116;-70